Palo Cedro, CA (96073)

6:00 PM PDT on August 30, 2016 (GMT -0700)
Deschutes | | Change Station

Elev 538 ft 40.57 °N, 122.24 °W | Updated 3 minutes ago

Clear
Clear
86.8 °F
Feels Like 83 °F
N
2.7
Wind Variable Wind from West

Today
High -- | Low -- °F
--% Chance of Precip.
Yesterday
High -- | Low -- °F
Precip. -- in
Pressure 29.81 in
Visibility 10.0 miles
Clouds Clear
Heat Index 83 °F
Dew Point 32 °F
Humidity 14%
Rainfall 0.00 in
Snow Depth Not available.
6:34 AM 7:43 PM
Waning Crescent, 2% visible
METAR KRDD 310053Z 17008KT 10SM CLR 33/02 A2982 RMK AO2 SLP093 T03330017
Pressure 29.81 in
Visibility 10.0 miles
Clouds Clear
Heat Index 83 °F
Dew Point 32 °F
Humidity 14%
Rainfall 0.00 in
Snow Depth Not available.
6:34 AM 7:43 PM
Waning Crescent, 2% visible
METAR KRDD 310053Z 17008KT 10SM CLR 33/02 A2982 RMK AO2 SLP093 T03330017

10-Day Weather Forecast

Almanac

Astronomy

Aug. 30, 2016 Rise Set
Actual Time
Civil Twilight
Nautical Twilight
Astronomical Twilight
Moon
Length of Visible Light
Length of Day
Tomorrow will be .
, % of the Moon is Illuminated

Today's Extremes

State Highs State Lows

Community

WunderPhotos

Upload Photos

1,935,964 photos uploaded!

WunderBlog® & News

Nearby

Air Quality

  Air Quality AQ Index Pollutant
Not available.

Snow Depth

Station Depth Elevation

Earthquake Activity

City Distance Mag. Time & Date
Minimum magnitude displayed is 2.5.

Coastal Water Temperatures

Place Temperature

Stations

Nearby Weather Stations

Station Location Temp. Windchill Dew Point Humidity Wind Precip. Elev Updated Type
                   

Watches & Warnings

There are currently no watches in effect.